createdAt,value
2018-11-14T00:00:22.660Z,67.09
2018-11-14T00:02:51.630Z,67.18
2018-11-14T00:05:20.083Z,67.76
2018-11-14T00:07:48.511Z,67.09
2018-11-14T00:10:17.671Z,67.20
2018-11-14T00:12:45.615Z,67.05
2018-11-14T00:15:15.407Z,67.30
2018-11-14T00:17:45.005Z,67.62
2018-11-14T00:20:13.908Z,67.03
2018-11-14T00:22:43.378Z,66.62
2018-11-14T00:25:11.859Z,65.84
2018-11-14T00:27:40.308Z,65.50
2018-11-14T00:30:18.435Z,66.09
2018-11-14T00:32:46.970Z,66.05
2018-11-14T00:35:15.532Z,65.62
2018-11-14T00:37:44.418Z,65.86
2018-11-14T00:40:13.793Z,65.12
2018-11-14T00:42:42.815Z,65.58
2018-11-14T00:45:13.322Z,64.81
2018-11-14T00:47:42.756Z,64.67
2018-11-14T00:50:12.427Z,65.02
2018-11-14T00:52:41.458Z,65.37
2018-11-14T00:55:13.780Z,65.47
2018-11-14T00:57:43.151Z,65.08
2018-11-14T01:00:14.532Z,64.71
2018-11-14T01:02:43.463Z,65.26
2018-11-14T01:05:12.858Z,64.95
2018-11-14T01:07:41.860Z,64.63
2018-11-14T01:10:11.990Z,65.91
2018-11-14T01:12:40.641Z,65.35
2018-11-14T01:15:11.486Z,65.31
2018-11-14T01:17:40.262Z,64.77
2018-11-14T01:20:12.050Z,64.64
2018-11-14T01:22:41.094Z,65.18
2018-11-14T01:25:11.016Z,65.64
2018-11-14T01:27:39.425Z,65.79
2018-11-14T01:30:14.699Z,65.79
2018-11-14T01:32:43.854Z,66.06
2018-11-14T01:35:12.310Z,66.44
2018-11-14T01:37:40.778Z,65.60
2018-11-14T01:40:17.743Z,65.53
2018-11-14T01:42:48.068Z,65.42
2018-11-14T01:45:16.503Z,65.02
2018-11-14T01:47:45.050Z,64.71
2018-11-14T01:50:13.482Z,65.36
2018-11-14T01:52:41.966Z,64.84
2018-11-14T01:55:13.460Z,64.05
2018-11-14T01:57:41.971Z,64.30
2018-11-14T02:00:13.951Z,64.60
2018-11-14T02:02:42.474Z,64.50
2018-11-14T02:05:11.486Z,64.08
2018-11-14T02:07:40.429Z,64.89
2018-11-14T02:10:10.482Z,64.81
2018-11-14T02:12:39.720Z,64.38
2018-11-14T02:15:11.338Z,63.79
2018-11-14T02:17:39.935Z,63.90
2018-11-14T02:20:08.854Z,64.42
2018-11-14T02:22:37.296Z,64.52
2018-11-14T02:25:06.262Z,63.75
2018-11-14T02:27:34.667Z,64.62
2018-11-14T02:30:06.175Z,64.16
2018-11-14T02:32:34.570Z,64.89
2018-11-14T02:35:06.100Z,64.24
2018-11-14T02:37:34.567Z,64.44
2018-11-14T02:40:04.841Z,64.16
2018-11-14T02:42:33.247Z,63.62
2018-11-14T02:45:04.175Z,63.99
2018-11-14T02:47:32.595Z,64.41
2018-11-14T02:50:04.282Z,64.15
2018-11-14T02:52:32.742Z,63.84
2018-11-14T02:55:03.491Z,63.47
2018-11-14T02:57:32.234Z,64.33
2018-11-14T03:00:00.649Z,63.73
2018-11-14T03:02:29.089Z,63.59
2018-11-14T03:04:57.495Z,63.31
2018-11-14T03:07:25.926Z,63.81
2018-11-14T03:09:54.373Z,62.98
2018-11-14T03:12:22.881Z,63.66
2018-11-14T03:14:51.259Z,63.62
2018-11-14T03:17:19.738Z,63.16
2018-11-14T03:19:48.151Z,63.53
2018-11-14T03:22:16.595Z,63.21
2018-11-14T03:24:45.014Z,63.36
2018-11-14T03:27:13.470Z,63.30
2018-11-14T03:29:41.884Z,63.55
2018-11-14T03:32:10.384Z,63.25
2018-11-14T03:34:38.813Z,62.88
2018-11-14T03:37:07.297Z,63.10
2018-11-14T03:39:35.695Z,63.22
2018-11-14T03:42:05.146Z,63.54
2018-11-14T03:44:33.586Z,62.99
2018-11-14T03:47:04.628Z,62.95
2018-11-14T03:49:33.056Z,62.93
2018-11-14T03:52:03.682Z,62.68
2018-11-14T03:54:32.098Z,62.42
2018-11-14T03:57:00.814Z,62.40
2018-11-14T03:59:29.272Z,62.32
2018-11-14T04:01:57.695Z,62.34
2018-11-14T04:04:26.154Z,62.45
2018-11-14T04:06:54.576Z,62.23
2018-11-14T04:09:23.124Z,62.62
2018-11-14T04:11:51.573Z,62.24
2018-11-14T04:14:20.048Z,62.30
2018-11-14T04:16:48.459Z,62.29
2018-11-14T04:19:16.927Z,62.16
2018-11-14T04:21:45.346Z,62.73
2018-11-14T04:24:13.763Z,62.47
2018-11-14T04:26:42.243Z,62.65
2018-11-14T04:29:10.739Z,61.86
2018-11-14T04:31:39.183Z,61.91
2018-11-14T04:34:07.584Z,62.67
2018-11-14T04:36:36.072Z,62.54
2018-11-14T04:39:08.950Z,62.40
2018-11-14T04:41:37.470Z,62.51
2018-11-14T04:44:08.346Z,62.76
2018-11-14T04:46:36.831Z,62.59
2018-11-14T04:49:06.025Z,62.71
2018-11-14T04:51:34.471Z,62.36
2018-11-14T04:54:05.466Z,62.64
2018-11-14T04:56:33.874Z,62.58
2018-11-14T04:59:04.625Z,62.32
2018-11-14T05:01:33.071Z,62.44
2018-11-14T05:04:03.572Z,61.86
2018-11-14T05:06:31.996Z,62.33
2018-11-14T05:09:00.806Z,62.46
2018-11-14T05:11:29.214Z,62.61
2018-11-14T05:13:57.681Z,62.55
2018-11-14T05:16:26.102Z,62.73
2018-11-14T05:18:54.540Z,63.00
2018-11-14T05:21:22.939Z,62.83
2018-11-14T05:23:51.345Z,62.87
2018-11-14T05:26:19.794Z,62.83
2018-11-14T05:28:48.206Z,63.00
2018-11-14T05:31:16.643Z,62.83
2018-11-14T05:33:45.043Z,62.71
2018-11-14T05:36:13.500Z,63.18
2018-11-14T05:38:41.882Z,63.22
2018-11-14T05:41:10.360Z,62.82
2018-11-14T05:43:38.774Z,62.40
2018-11-14T05:46:07.196Z,62.34
2018-11-14T05:48:35.648Z,62.39
2018-11-14T05:51:06.769Z,64.18
2018-11-14T05:53:35.240Z,64.22
2018-11-14T05:56:05.580Z,64.71
2018-11-14T05:58:34.050Z,65.03
2018-11-14T06:01:04.842Z,65.45
2018-11-14T06:03:33.350Z,65.49
2018-11-14T06:06:03.646Z,64.82
2018-11-14T06:08:32.126Z,64.07
2018-11-14T06:11:00.576Z,63.92
2018-11-14T06:13:29.049Z,64.33
2018-11-14T06:15:57.478Z,64.17
2018-11-14T06:18:25.952Z,65.01
2018-11-14T06:20:54.371Z,65.13
2018-11-14T06:23:22.845Z,65.57
2018-11-14T06:25:51.256Z,65.84
2018-11-14T06:28:19.666Z,65.08
2018-11-14T06:30:48.118Z,64.62
2018-11-14T06:33:16.543Z,64.62
2018-11-14T06:35:45.015Z,65.54
2018-11-14T06:38:13.442Z,65.62
2018-11-14T06:40:41.872Z,65.38
2018-11-14T06:43:10.303Z,64.55
2018-11-14T06:45:38.754Z,65.04
2018-11-14T06:48:07.268Z,64.70
2018-11-14T06:50:35.699Z,65.08
2018-11-14T06:53:06.990Z,64.89
2018-11-14T06:55:35.411Z,65.51
2018-11-14T06:58:05.143Z,67.04
2018-11-14T07:00:34.666Z,67.23
2018-11-14T07:03:06.564Z,67.63
2018-11-14T07:05:35.168Z,67.51
2018-11-14T07:08:06.770Z,67.79
2018-11-14T07:10:36.372Z,68.29
2018-11-14T07:13:06.728Z,68.44
2018-11-14T07:15:35.680Z,67.84
2018-11-14T07:18:06.153Z,68.00
2018-11-14T07:20:35.926Z,67.80
2018-11-14T07:23:06.093Z,67.92
2018-11-14T07:25:34.531Z,67.45
2018-11-14T07:28:06.116Z,68.32
2018-11-14T07:30:35.303Z,67.69
2018-11-14T07:33:09.290Z,68.38
2018-11-14T07:35:37.722Z,68.95
2018-11-14T07:38:41.618Z,68.84
2018-11-14T07:41:11.718Z,69.57
2018-11-14T07:43:40.799Z,69.14
2018-11-14T07:46:09.790Z,68.86
2018-11-14T07:48:38.793Z,69.32
2018-11-14T07:51:07.582Z,69.60
2018-11-14T07:53:36.043Z,69.19
2018-11-14T07:56:07.714Z,68.38
2018-11-14T07:58:36.205Z,68.34
2018-11-14T08:01:07.033Z,68.64
2018-11-14T08:03:35.478Z,68.18
2018-11-14T08:06:05.251Z,68.26
2018-11-14T08:08:33.789Z,68.14
2018-11-14T08:11:05.299Z,68.16
2018-11-14T08:13:34.843Z,67.52
2018-11-14T08:16:05.560Z,67.37
2018-11-14T08:18:33.992Z,66.78
2018-11-14T08:21:05.738Z,66.88
2018-11-14T08:23:34.172Z,66.49
2018-11-14T08:26:05.602Z,66.83
2018-11-14T08:28:34.122Z,66.30
2018-11-14T08:31:06.255Z,66.13
2018-11-14T08:33:34.674Z,65.94
2018-11-14T08:36:06.271Z,66.25
2018-11-14T08:38:34.686Z,65.59
2018-11-14T08:41:07.531Z,65.14
2018-11-14T08:43:35.951Z,65.50
2018-11-14T08:46:05.703Z,64.58
2018-11-14T08:48:34.117Z,64.45
2018-11-14T08:51:05.128Z,64.37
2018-11-14T08:53:33.547Z,64.18
2018-11-14T08:56:04.610Z,63.54
2018-11-14T08:58:33.012Z,63.49
2018-11-14T09:01:04.410Z,63.53
2018-11-14T09:03:32.846Z,64.25
2018-11-14T09:06:05.800Z,63.74
2018-11-14T09:08:34.254Z,63.88
2018-11-14T09:11:06.949Z,64.57
2018-11-14T09:13:35.310Z,64.56
2018-11-14T09:16:06.192Z,65.11
2018-11-14T09:18:34.610Z,63.94
2018-11-14T09:21:06.195Z,64.57
2018-11-14T09:23:34.638Z,63.71
2018-11-14T09:26:05.572Z,63.18
2018-11-14T09:28:33.966Z,63.98
2018-11-14T09:31:04.782Z,63.38
2018-11-14T09:33:33.219Z,63.68
2018-11-14T09:36:03.644Z,63.99
2018-11-14T09:38:32.038Z,63.64
2018-11-14T09:41:00.513Z,63.95
2018-11-14T09:43:28.922Z,64.11
2018-11-14T09:45:57.330Z,64.15
2018-11-14T09:48:25.764Z,63.95
2018-11-14T09:50:54.204Z,63.88
2018-11-14T09:53:22.672Z,63.51
2018-11-14T09:55:51.075Z,63.00
2018-11-14T09:58:19.482Z,62.42
2018-11-14T10:00:47.988Z,63.19
2018-11-14T10:03:17.710Z,63.43
2018-11-14T10:05:46.147Z,63.42
2018-11-14T10:08:14.683Z,63.13
2018-11-14T10:10:43.268Z,62.63
2018-11-14T10:13:11.698Z,62.93
2018-11-14T10:15:40.183Z,62.82
2018-11-14T10:18:08.622Z,62.66
2018-11-14T10:20:37.035Z,62.86
2018-11-14T10:23:06.056Z,63.07
2018-11-14T10:25:34.484Z,62.37
2018-11-14T10:28:05.387Z,63.10
2018-11-14T10:30:33.803Z,63.09
2018-11-14T10:33:04.682Z,63.92
2018-11-14T10:35:33.084Z,62.92
2018-11-14T10:38:04.350Z,63.64
2018-11-14T10:40:32.750Z,63.42
2018-11-14T10:43:03.736Z,63.02
2018-11-14T10:45:32.164Z,63.82
2018-11-14T10:48:00.602Z,63.70
2018-11-14T10:50:29.055Z,63.98
2018-11-14T10:52:57.478Z,63.28
2018-11-14T10:55:25.917Z,63.77
2018-11-14T10:57:54.730Z,63.57
2018-11-14T11:00:29.388Z,63.71
2018-11-14T11:03:04.062Z,64.03
2018-11-14T11:05:37.806Z,64.22
2018-11-14T11:08:11.784Z,64.08
2018-11-14T11:10:45.458Z,63.88
2018-11-14T11:13:19.248Z,63.80
2018-11-14T11:15:52.931Z,63.86
2018-11-14T11:18:25.359Z,64.31
2018-11-14T11:20:53.965Z,64.50
2018-11-14T11:23:22.620Z,64.58
2018-11-14T11:25:51.007Z,64.37
2018-11-14T11:28:19.430Z,64.43
2018-11-14T11:30:48.040Z,64.27
2018-11-14T11:33:16.502Z,64.95
2018-11-14T11:35:44.954Z,64.48
2018-11-14T11:38:13.450Z,64.94
2018-11-14T11:40:42.544Z,64.47
2018-11-14T11:43:10.970Z,64.63
2018-11-14T11:45:39.419Z,65.50
2018-11-14T11:48:07.851Z,64.94
2018-11-14T11:50:36.299Z,65.33
2018-11-14T11:53:05.299Z,64.89
2018-11-14T11:55:33.794Z,65.77
2018-11-14T11:58:04.622Z,65.15
2018-11-14T12:00:33.249Z,64.98
2018-11-14T12:03:04.355Z,65.71
2018-11-14T12:05:32.810Z,65.09
2018-11-14T12:08:03.636Z,65.88
2018-11-14T12:10:32.091Z,66.16
2018-11-14T12:13:00.556Z,66.18
2018-11-14T12:15:28.986Z,65.78
2018-11-14T12:17:57.387Z,65.76
2018-11-14T12:20:26.319Z,66.27
2018-11-14T12:22:54.750Z,66.42
2018-11-14T12:25:23.170Z,65.48
2018-11-14T12:27:51.631Z,66.04
2018-11-14T12:30:20.066Z,65.63
2018-11-14T12:32:48.556Z,65.27
2018-11-14T12:35:17.448Z,65.83
2018-11-14T12:37:45.833Z,65.85
2018-11-14T12:40:15.633Z,65.34
2018-11-14T12:42:44.047Z,64.80
2018-11-14T12:45:13.827Z,65.24
2018-11-14T12:47:42.410Z,64.48
2018-11-14T12:50:11.842Z,65.13
2018-11-14T12:52:41.039Z,64.80
2018-11-14T12:55:11.955Z,64.16
2018-11-14T12:57:40.373Z,64.65
2018-11-14T13:00:10.889Z,65.15
2018-11-14T13:02:39.350Z,64.61
2018-11-14T13:05:08.982Z,64.44
2018-11-14T13:07:37.432Z,65.58
2018-11-14T13:10:07.483Z,64.91
2018-11-14T13:12:35.966Z,65.78
2018-11-14T13:15:05.202Z,64.76
2018-11-14T13:17:33.666Z,64.88
2018-11-14T13:20:04.548Z,64.90
2018-11-14T13:22:33.001Z,64.88
2018-11-14T13:25:04.382Z,65.45
2018-11-14T13:27:32.822Z,64.88
2018-11-14T13:30:04.372Z,65.23
2018-11-14T13:32:32.819Z,65.17
2018-11-14T13:35:03.744Z,65.29
2018-11-14T13:37:32.187Z,65.10
2018-11-14T13:40:00.594Z,65.53
2018-11-14T13:42:29.035Z,65.09
2018-11-14T13:44:57.440Z,64.66
2018-11-14T13:47:25.898Z,65.62
2018-11-14T13:49:54.528Z,65.58
2018-11-14T13:52:23.041Z,65.73
2018-11-14T13:54:58.050Z,65.08
2018-11-14T13:57:26.467Z,65.36
2018-11-14T13:59:54.882Z,65.86
2018-11-14T14:02:23.431Z,65.33
2018-11-14T14:04:51.914Z,65.81
2018-11-14T14:07:20.326Z,64.95
2018-11-14T14:09:48.843Z,65.55
2018-11-14T14:12:17.239Z,66.15
2018-11-14T14:14:45.710Z,66.01
2018-11-14T14:17:14.145Z,65.66
2018-11-14T14:22:27.155Z,65.57
2018-11-14T14:24:55.676Z,66.48
2018-11-14T14:27:24.215Z,65.89
2018-11-14T14:29:52.992Z,66.03
2018-11-14T14:32:21.491Z,66.59
2018-11-14T14:34:50.029Z,66.40
2018-11-14T14:37:18.567Z,66.67
2018-11-14T14:39:47.199Z,65.97
2018-11-14T14:42:15.709Z,66.21
2018-11-14T14:44:44.256Z,66.79
2018-11-14T14:47:12.743Z,66.80
2018-11-14T14:49:41.291Z,66.85
2018-11-14T14:52:09.856Z,66.48
2018-11-14T14:54:38.452Z,66.69
2018-11-14T14:57:07.095Z,65.40
2018-11-14T14:59:35.605Z,65.88
2018-11-14T15:02:05.938Z,65.94
2018-11-14T15:04:34.439Z,66.61
2018-11-14T15:07:06.467Z,66.55
2018-11-14T15:09:35.017Z,67.27
2018-11-14T15:12:12.938Z,67.00
2018-11-14T15:14:45.797Z,66.93
2018-11-14T15:17:14.381Z,67.19
2018-11-14T15:19:42.862Z,67.99
2018-11-14T15:22:11.416Z,68.76
2018-11-14T15:24:42.726Z,68.61
2018-11-14T15:27:14.195Z,68.66
2018-11-14T15:29:42.599Z,68.36
2018-11-14T15:32:11.120Z,68.83
2018-11-14T15:34:39.629Z,68.40
2018-11-14T15:37:08.125Z,66.99
2018-11-14T15:39:39.382Z,67.48
2018-11-14T15:42:07.964Z,67.54
2018-11-14T15:44:36.549Z,68.50
2018-11-14T15:47:05.195Z,68.49
2018-11-14T15:49:33.652Z,69.49
2018-11-14T15:52:04.635Z,68.71
2018-11-14T15:54:33.108Z,68.75
2018-11-14T15:57:03.761Z,69.16
2018-11-14T15:59:32.319Z,68.76
2018-11-14T16:02:00.900Z,67.89
2018-11-14T16:04:29.443Z,68.15
2018-11-14T16:06:58.081Z,67.78
2018-11-14T16:09:26.626Z,67.99
2018-11-14T16:11:55.164Z,68.03
2018-11-14T16:14:23.686Z,67.78
2018-11-14T16:16:52.288Z,69.21
2018-11-14T16:19:21.190Z,69.32
2018-11-14T16:21:49.711Z,68.71
2018-11-14T16:24:18.246Z,68.77
2018-11-14T16:26:46.798Z,69.05
2018-11-14T16:29:15.341Z,68.50
2018-11-14T16:31:44.248Z,68.26
2018-11-14T16:34:12.692Z,67.94
2018-11-14T16:36:41.178Z,68.14
2018-11-14T16:39:11.454Z,67.92
2018-11-14T16:41:39.929Z,67.90
2018-11-14T16:44:09.616Z,68.47
2018-11-14T16:46:44.910Z,69.22
2018-11-14T16:49:13.423Z,69.43
2018-11-14T16:51:41.914Z,69.81
2018-11-14T16:54:10.768Z,69.53
2018-11-14T16:56:39.328Z,69.37
2018-11-14T16:59:08.082Z,69.38
2018-11-14T17:01:36.736Z,69.47
2018-11-14T17:04:07.039Z,70.14
2018-11-14T17:06:35.580Z,71.17
2018-11-14T17:09:08.907Z,71.46
2018-11-14T17:11:37.457Z,71.92
2018-11-14T17:14:11.342Z,71.76
2018-11-14T17:16:40.810Z,72.34
2018-11-14T17:19:18.192Z,71.90
2018-11-14T17:21:46.669Z,71.57
2018-11-14T17:24:15.171Z,72.08
2018-11-14T17:26:43.715Z,71.68
2018-11-14T17:29:12.244Z,71.26
2018-11-14T17:31:40.735Z,70.49
2018-11-14T17:34:12.335Z,69.72
2018-11-14T17:36:40.841Z,69.73
2018-11-14T17:39:11.377Z,69.43
2018-11-14T17:41:40.045Z,68.57
2018-11-14T17:44:08.519Z,68.70
2018-11-14T17:46:37.523Z,69.07
2018-11-14T17:49:06.700Z,68.35
2018-11-14T17:51:36.175Z,69.33
2018-11-14T17:54:05.870Z,69.03
2018-11-14T17:56:34.992Z,69.55
2018-11-14T17:59:05.878Z,69.58
2018-11-14T18:01:35.070Z,69.50
2018-11-14T18:04:05.473Z,69.51
2018-11-14T18:06:34.392Z,69.49
2018-11-14T18:09:08.723Z,69.76
2018-11-14T18:11:37.957Z,69.99
2018-11-14T18:14:06.858Z,70.63
2018-11-14T18:16:36.011Z,70.52
2018-11-14T18:19:07.065Z,71.09
2018-11-14T18:21:35.974Z,71.33
2018-11-14T18:24:05.890Z,71.67
2018-11-14T18:26:34.959Z,71.41
2018-11-14T18:29:08.302Z,70.67
2018-11-14T18:31:38.068Z,69.59
2018-11-14T18:34:07.523Z,69.55
2018-11-14T18:36:36.591Z,69.67
2018-11-14T18:39:12.851Z,69.61
2018-11-14T18:41:41.981Z,70.74
2018-11-14T18:44:10.879Z,70.83
2018-11-14T18:46:39.808Z,71.59
2018-11-14T18:49:09.138Z,71.90
2018-11-14T18:51:38.671Z,72.03
2018-11-14T18:54:07.905Z,72.99
2018-11-14T18:56:37.177Z,72.06
2018-11-14T18:59:09.060Z,71.46
2018-11-14T19:01:38.103Z,70.80
2018-11-14T19:04:06.926Z,70.26
2018-11-14T19:06:36.393Z,69.64
2018-11-14T19:09:09.116Z,69.54
2018-11-14T19:11:38.815Z,69.57
2018-11-14T19:14:07.905Z,68.49
2018-11-14T19:16:37.564Z,68.70
2018-11-14T19:19:12.859Z,68.81
2018-11-14T19:21:41.712Z,69.26
2018-11-14T19:24:10.477Z,69.23
2018-11-14T19:26:39.311Z,69.07
2018-11-14T19:29:08.870Z,70.16
2018-11-14T19:31:38.035Z,69.90
2018-11-14T19:34:06.876Z,69.95
2018-11-14T19:36:35.575Z,69.65
2018-11-14T19:39:09.222Z,70.20
2018-11-14T19:41:38.153Z,69.34
2018-11-14T19:44:07.012Z,68.99
2018-11-14T19:46:35.950Z,69.25
2018-11-14T19:49:06.688Z,69.28
2018-11-14T19:51:36.253Z,68.56
2018-11-14T19:54:08.848Z,68.65
2018-11-14T19:56:37.588Z,68.57
2018-11-14T19:59:06.336Z,68.44
2018-11-14T20:01:35.212Z,68.17
2018-11-14T20:04:08.015Z,68.28
2018-11-14T20:06:39.043Z,68.47
2018-11-14T20:09:11.077Z,68.50
2018-11-14T20:11:39.949Z,67.99
2018-11-14T20:14:08.872Z,68.63
2018-11-14T20:16:37.879Z,68.87
2018-11-14T20:19:07.166Z,68.19
2018-11-14T20:21:36.041Z,68.34
2018-11-14T20:24:06.219Z,68.63
2018-11-14T20:26:35.453Z,68.59
2018-11-14T20:29:06.402Z,68.47
2018-11-14T20:31:36.075Z,68.47
2018-11-14T20:34:06.793Z,67.77
2018-11-14T20:36:35.822Z,68.19
2018-11-14T20:39:09.931Z,68.37
2018-11-14T20:41:38.861Z,67.52
2018-11-14T20:44:07.722Z,67.25
2018-11-14T20:46:43.383Z,67.91
2018-11-14T20:49:12.291Z,67.41
2018-11-14T20:51:41.325Z,66.97
2018-11-14T20:54:10.203Z,66.53
2018-11-14T20:56:38.623Z,67.09
2018-11-14T20:59:08.760Z,67.87
2018-11-14T21:01:37.282Z,68.10
2018-11-14T21:04:05.939Z,67.95
2018-11-14T21:06:34.369Z,68.22
2018-11-14T21:09:06.437Z,68.81
2018-11-14T21:11:34.939Z,68.57
2018-11-14T21:14:05.203Z,69.54
2018-11-14T21:16:34.020Z,69.44
2018-11-14T21:19:03.769Z,68.66
2018-11-14T21:21:32.258Z,68.03
2018-11-14T21:24:01.101Z,67.32
2018-11-14T21:26:29.862Z,68.03
2018-11-14T21:28:58.534Z,67.84
2018-11-14T21:31:27.451Z,68.03
2018-11-14T21:33:55.878Z,67.52
2018-11-14T21:36:24.343Z,67.79
2018-11-14T21:38:52.790Z,67.35
2018-11-14T21:41:21.226Z,67.67
2018-11-14T21:43:49.711Z,66.72
2018-11-14T21:46:18.201Z,67.18
2018-11-14T21:48:46.666Z,67.09
2018-11-14T21:51:15.114Z,67.68
2018-11-14T21:53:43.576Z,66.92
2018-11-14T21:56:11.995Z,67.56
2018-11-14T21:58:40.403Z,66.78
2018-11-14T22:01:08.871Z,67.60
2018-11-14T22:03:37.295Z,67.33
2018-11-14T22:06:06.998Z,67.38
2018-11-14T22:08:35.492Z,67.28
2018-11-14T22:11:05.211Z,66.77
2018-11-14T22:13:33.662Z,67.82
2018-11-14T22:16:05.086Z,67.74
2018-11-14T22:18:33.489Z,68.36
2018-11-14T22:21:03.460Z,69.56
2018-11-14T22:23:32.430Z,70.07
2018-11-14T22:26:04.986Z,70.15
2018-11-14T22:28:33.434Z,70.41
2018-11-14T22:31:08.614Z,71.14
2018-11-14T22:33:37.078Z,71.41
2018-11-14T22:36:05.842Z,71.97
2018-11-14T22:38:34.668Z,70.90
2018-11-14T22:41:05.184Z,70.72
2018-11-14T22:43:33.582Z,70.52
2018-11-14T22:46:05.182Z,71.28
2018-11-14T22:48:33.638Z,71.67
2018-11-14T22:51:05.274Z,70.80
2018-11-14T22:53:33.670Z,71.53
2018-11-14T22:56:04.654Z,70.57
2018-11-14T22:58:33.112Z,69.88
2018-11-14T23:01:05.198Z,69.66
2018-11-14T23:03:33.638Z,69.52
2018-11-14T23:06:04.816Z,69.09
2018-11-14T23:08:33.277Z,68.74
2018-11-14T23:11:04.520Z,69.24
2018-11-14T23:13:32.940Z,68.89
2018-11-14T23:16:04.514Z,69.17
2018-11-14T23:18:32.933Z,68.65
2018-11-14T23:21:03.611Z,68.16
2018-11-14T23:23:32.636Z,68.12
2018-11-14T23:26:03.764Z,68.26
2018-11-14T23:28:32.259Z,68.79
2018-11-14T23:31:00.743Z,68.81
2018-11-14T23:33:29.148Z,68.88
2018-11-14T23:35:57.587Z,67.89
2018-11-14T23:38:26.059Z,68.24
2018-11-14T23:40:54.475Z,68.62
2018-11-14T23:43:22.969Z,68.48
2018-11-14T23:45:51.390Z,68.07
2018-11-14T23:48:19.859Z,68.62
2018-11-14T23:50:48.308Z,68.75
2018-11-14T23:53:16.791Z,69.23
2018-11-14T23:55:45.203Z,69.10
2018-11-14T23:58:13.631Z,69.70
